createdAt,value
2019-04-10T00:00:07.474Z,87.83
2019-04-10T00:02:35.600Z,91.00
2019-04-10T00:05:04.029Z,90.37
2019-04-10T00:07:31.318Z,90.03
2019-04-10T00:09:59.269Z,90.83
2019-04-10T00:12:26.643Z,87.20
2019-04-10T00:14:53.888Z,89.37
2019-04-10T00:17:21.208Z,88.70
2019-04-10T00:19:48.717Z,88.83
2019-04-10T00:22:16.256Z,83.30
2019-04-10T00:24:44.218Z,85.23
2019-04-10T00:27:12.462Z,81.73
2019-04-10T00:29:40.417Z,86.83
2019-04-10T00:32:07.824Z,82.67
2019-04-10T00:34:35.836Z,83.93
2019-04-10T00:37:03.798Z,81.23
2019-04-10T00:39:31.153Z,86.27
2019-04-10T00:41:58.840Z,82.87
2019-04-10T00:44:26.171Z,85.57
2019-04-10T00:46:53.520Z,80.73
2019-04-10T00:49:21.633Z,81.73
2019-04-10T00:51:49.996Z,80.03
2019-04-10T00:54:18.189Z,83.40
2019-04-10T00:56:46.016Z,83.67
2019-04-10T00:59:13.575Z,79.10
2019-04-10T01:01:41.543Z,78.43
2019-04-10T01:04:10.471Z,75.90
2019-04-10T01:06:37.943Z,77.63
2019-04-10T01:09:07.519Z,74.53
2019-04-10T01:11:35.060Z,76.73
2019-04-10T01:14:02.341Z,82.70
2019-04-10T01:16:29.632Z,78.87
2019-04-10T01:18:57.124Z,77.40
2019-04-10T01:21:24.385Z,80.40
2019-04-10T01:23:51.936Z,79.67
2019-04-10T01:26:19.250Z,76.63
2019-04-10T01:28:47.111Z,82.40
2019-04-10T01:31:15.118Z,77.03
2019-04-10T01:33:43.045Z,78.30
2019-04-10T01:36:10.987Z,78.57
2019-04-10T01:38:39.789Z,76.13
2019-04-10T01:41:07.724Z,72.00
2019-04-10T01:43:35.779Z,77.13
2019-04-10T01:46:04.126Z,74.27
2019-04-10T01:48:32.073Z,75.07
2019-04-10T01:51:01.140Z,78.47
2019-04-10T01:53:29.793Z,75.23
2019-04-10T01:55:57.737Z,78.40
2019-04-10T01:58:25.353Z,78.67
2019-04-10T02:01:18.571Z,74.40
2019-04-10T02:03:46.564Z,81.07
2019-04-10T02:06:13.908Z,76.03
2019-04-10T02:08:42.297Z,74.50
2019-04-10T02:11:09.706Z,75.27
2019-04-10T02:13:36.925Z,72.77
2019-04-10T02:16:04.255Z,72.20
2019-04-10T02:18:31.480Z,76.77
2019-04-10T02:20:59.247Z,71.57
2019-04-10T02:23:26.476Z,71.00
2019-04-10T02:25:54.686Z,75.07
2019-04-10T02:28:22.764Z,75.23
2019-04-10T02:30:50.874Z,82.53
2019-04-10T02:33:18.493Z,72.23
2019-04-10T02:35:47.605Z,77.33
2019-04-10T02:38:30.938Z,74.43
2019-04-10T02:40:45.595Z,71.80
2019-04-10T02:43:14.076Z,74.70
2019-04-10T02:45:44.206Z,75.97
2019-04-10T02:48:12.146Z,73.47
2019-04-10T02:50:40.777Z,72.10
2019-04-10T02:53:08.301Z,76.13
2019-04-10T02:55:35.784Z,76.33
2019-04-10T02:58:03.416Z,73.67
2019-04-10T03:00:30.739Z,73.37
2019-04-10T03:02:59.292Z,72.90
2019-04-10T03:05:27.483Z,78.87
2019-04-10T03:07:55.919Z,73.93
2019-04-10T03:10:31.598Z,76.97
2019-04-10T03:12:52.769Z,78.03
2019-04-10T03:15:20.884Z,75.03
2019-04-10T03:17:48.389Z,76.03
2019-04-10T03:20:16.215Z,71.97
2019-04-10T03:22:45.094Z,74.93
2019-04-10T03:25:12.874Z,71.90
2019-04-10T03:27:40.690Z,72.30
2019-04-10T03:30:10.113Z,74.03
2019-04-10T03:33:12.465Z,73.73
2019-04-10T03:35:47.865Z,70.70
2019-04-10T03:38:16.170Z,74.63
2019-04-10T03:40:43.767Z,68.30
2019-04-10T03:43:11.892Z,75.30
2019-04-10T03:45:39.308Z,72.40
2019-04-10T03:48:06.557Z,73.87
2019-04-10T03:50:34.108Z,70.00
2019-04-10T03:53:02.145Z,75.83
2019-04-10T03:55:30.212Z,77.87
2019-04-10T03:57:58.637Z,71.37
2019-04-10T04:00:26.051Z,77.10
2019-04-10T04:02:53.870Z,72.63
2019-04-10T04:05:22.369Z,66.97
2019-04-10T04:07:50.677Z,69.40
2019-04-10T04:10:18.437Z,72.77
2019-04-10T04:12:46.753Z,72.60
2019-04-10T04:15:14.676Z,64.27
2019-04-10T04:17:42.293Z,67.97
2019-04-10T04:20:10.713Z,66.30
2019-04-10T04:22:39.065Z,66.67
2019-04-10T04:25:06.774Z,70.97
2019-04-10T04:27:34.250Z,68.00
2019-04-10T04:30:02.289Z,66.97
2019-04-10T04:32:29.624Z,64.13
2019-04-10T04:34:57.190Z,65.70
2019-04-10T04:37:24.488Z,64.03
2019-04-10T04:39:52.238Z,63.50
2019-04-10T04:42:20.207Z,63.80
2019-04-10T04:44:47.935Z,65.90
2019-04-10T04:47:15.644Z,61.60
2019-04-10T04:49:44.267Z,65.13
2019-04-10T04:52:13.228Z,62.40
2019-04-10T04:54:41.533Z,65.80
2019-04-10T04:57:09.276Z,64.07
2019-04-10T04:59:36.593Z,61.17
2019-04-10T05:02:04.020Z,64.23
2019-04-10T05:04:32.399Z,60.23
2019-04-10T05:07:00.436Z,60.93
2019-04-10T05:09:34.301Z,59.70
2019-04-10T05:11:57.076Z,58.50
2019-04-10T05:14:24.616Z,59.87
2019-04-10T05:16:52.150Z,60.77
2019-04-10T05:19:19.420Z,59.63
2019-04-10T05:21:47.619Z,55.50
2019-04-10T05:24:15.770Z,58.10
2019-04-10T05:26:43.166Z,58.53
2019-04-10T05:29:11.152Z,55.90
2019-04-10T05:31:38.612Z,58.57
2019-04-10T05:34:06.210Z,54.80
2019-04-10T05:36:33.603Z,55.23
2019-04-10T05:39:02.110Z,53.73
2019-04-10T05:41:29.430Z,53.37
2019-04-10T05:43:56.689Z,52.50
2019-04-10T05:46:24.984Z,51.20
2019-04-10T05:48:52.596Z,53.50
2019-04-10T05:51:21.254Z,50.57
2019-04-10T05:53:51.034Z,50.73
2019-04-10T05:56:19.182Z,50.87
2019-04-10T05:58:47.067Z,48.53
2019-04-10T06:01:14.301Z,48.43
2019-04-10T06:03:41.543Z,48.07
2019-04-10T06:06:10.319Z,48.60
2019-04-10T06:08:39.326Z,49.00
2019-04-10T06:11:06.796Z,45.30
2019-04-10T06:13:34.787Z,42.67
2019-04-10T06:16:03.453Z,45.97
2019-04-10T06:18:31.300Z,42.83
2019-04-10T06:20:58.883Z,44.43
2019-04-10T06:23:27.320Z,42.10
2019-04-10T06:25:56.216Z,42.10
2019-04-10T06:28:25.506Z,44.10
2019-04-10T06:30:52.743Z,45.43
2019-04-10T06:33:20.145Z,42.13
2019-04-10T06:35:48.879Z,41.87
2019-04-10T06:38:16.892Z,42.13
2019-04-10T06:40:44.289Z,43.50
2019-04-10T06:43:12.786Z,42.10
2019-04-10T06:45:40.550Z,41.83
2019-04-10T06:48:08.950Z,41.20
2019-04-10T06:50:37.102Z,41.53
2019-04-10T06:53:04.515Z,40.37
2019-04-10T06:55:32.288Z,42.27
2019-04-10T06:58:00.751Z,39.87
2019-04-10T07:00:29.004Z,41.00
2019-04-10T07:02:56.646Z,39.37
2019-04-10T07:05:24.211Z,43.27
2019-04-10T07:07:57.763Z,39.70
2019-04-10T07:10:28.569Z,40.93
2019-04-10T07:12:51.268Z,39.30
2019-04-10T07:15:22.112Z,38.80
2019-04-10T07:17:47.762Z,37.37
2019-04-10T07:20:17.807Z,36.97
2019-04-10T07:22:46.573Z,37.90
2019-04-10T07:25:15.464Z,37.70
2019-04-10T07:27:43.957Z,35.57
2019-04-10T07:30:11.910Z,36.13
2019-04-10T07:32:43.341Z,35.37
2019-04-10T07:35:09.264Z,36.90
2019-04-10T07:37:36.521Z,35.80
2019-04-10T07:40:06.008Z,36.17
2019-04-10T07:42:38.201Z,34.83
2019-04-10T07:45:02.634Z,36.57
2019-04-10T07:47:29.893Z,34.77
2019-04-10T07:49:59.470Z,35.60
2019-04-10T07:52:27.548Z,37.73
2019-04-10T07:54:56.515Z,34.57
2019-04-10T07:57:24.529Z,33.93
2019-04-10T07:59:52.653Z,38.07
2019-04-10T08:02:21.086Z,35.60
2019-04-10T08:04:48.756Z,35.20
2019-04-10T08:07:28.563Z,36.50
2019-04-10T08:09:46.322Z,37.23
2019-04-10T08:12:13.958Z,35.63
2019-04-10T08:14:42.030Z,33.27
2019-04-10T08:17:10.036Z,41.17
2019-04-10T08:19:39.022Z,38.30
2019-04-10T08:22:08.190Z,39.00
2019-04-10T08:24:36.444Z,38.47
2019-04-10T08:27:05.281Z,35.23
2019-04-10T08:29:32.789Z,38.70
2019-04-10T08:32:01.253Z,37.23
2019-04-10T08:34:28.993Z,35.20
2019-04-10T08:36:56.788Z,34.87
2019-04-10T08:39:35.211Z,39.73
2019-04-10T08:41:54.387Z,36.50
2019-04-10T08:44:22.237Z,36.00
2019-04-10T08:46:50.397Z,35.43
2019-04-10T08:49:18.411Z,35.77
2019-04-10T08:51:46.118Z,35.17
2019-04-10T08:54:14.108Z,36.53
2019-04-10T08:56:41.401Z,35.57
2019-04-10T08:59:09.681Z,36.17
2019-04-10T09:01:37.709Z,34.63
2019-04-10T09:04:05.696Z,34.07
2019-04-10T09:06:33.609Z,35.77
2019-04-10T09:09:01.395Z,34.47
2019-04-10T09:11:30.164Z,34.60
2019-04-10T09:13:58.954Z,35.10
2019-04-10T09:16:26.759Z,34.47
2019-04-10T09:18:54.075Z,33.00
2019-04-10T09:21:21.597Z,35.17
2019-04-10T09:23:53.054Z,32.63
2019-04-10T09:26:18.809Z,33.60
2019-04-10T09:28:46.641Z,33.07
2019-04-10T09:31:15.498Z,33.93
2019-04-10T09:33:43.309Z,33.10
2019-04-10T09:36:11.168Z,32.30
2019-04-10T09:38:38.992Z,33.17
2019-04-10T09:41:07.697Z,32.23
2019-04-10T09:43:35.991Z,31.63
2019-04-10T09:46:04.238Z,31.63
2019-04-10T09:48:31.992Z,31.57
2019-04-10T09:51:00.269Z,30.33
2019-04-10T09:53:28.677Z,30.03
2019-04-10T09:55:56.764Z,29.50
2019-04-10T09:58:24.253Z,31.93
2019-04-10T10:00:52.252Z,31.77
2019-04-10T10:03:20.059Z,29.80
2019-04-10T10:05:47.733Z,30.73
2019-04-10T10:08:16.217Z,29.77
2019-04-10T10:10:44.945Z,30.57
2019-04-10T10:13:13.107Z,29.03
2019-04-10T10:15:41.106Z,29.27
2019-04-10T10:18:08.859Z,30.47
2019-04-10T10:20:36.288Z,29.60
2019-04-10T10:23:03.788Z,29.00
2019-04-10T10:25:31.226Z,31.00
2019-04-10T10:27:58.666Z,30.27
2019-04-10T10:30:25.883Z,28.63
2019-04-10T10:32:53.258Z,28.77
2019-04-10T10:35:21.030Z,29.53
2019-04-10T10:37:48.522Z,29.57
2019-04-10T10:40:17.204Z,32.17
2019-04-10T10:42:45.630Z,30.03
2019-04-10T10:45:14.388Z,29.80
2019-04-10T10:47:42.197Z,31.33
2019-04-10T10:50:09.803Z,30.23
2019-04-10T10:52:37.160Z,31.43
2019-04-10T10:55:05.368Z,30.03
2019-04-10T10:57:33.344Z,29.43
2019-04-10T11:00:02.102Z,28.53
2019-04-10T11:02:29.698Z,28.23
2019-04-10T11:04:57.834Z,30.93
2019-04-10T11:07:25.162Z,27.90
2019-04-10T11:09:52.968Z,26.60
2019-04-10T11:12:20.293Z,27.37
2019-04-10T11:14:48.157Z,25.93
2019-04-10T11:17:16.066Z,24.93
2019-04-10T11:19:43.424Z,24.40
2019-04-10T11:22:14.073Z,24.37
2019-04-10T11:24:43.444Z,23.57
2019-04-10T11:27:11.758Z,23.37
2019-04-10T11:29:39.441Z,23.73
2019-04-10T11:32:06.880Z,22.50
2019-04-10T11:34:35.547Z,23.07
2019-04-10T11:37:21.531Z,27.17
2019-04-10T11:39:35.347Z,23.00
2019-04-10T11:42:02.021Z,22.97
2019-04-10T11:44:29.785Z,23.60
2019-04-10T11:46:58.683Z,23.93
2019-04-10T11:49:27.686Z,24.33
2019-04-10T11:51:56.675Z,23.47
2019-04-10T11:54:26.939Z,23.90
2019-04-10T11:56:57.936Z,22.47
2019-04-10T11:59:24.120Z,24.20
2019-04-10T12:01:57.759Z,21.83
2019-04-10T12:04:21.175Z,22.70
2019-04-10T12:06:52.285Z,22.40
2019-04-10T12:09:59.702Z,23.27
2019-04-10T12:11:47.658Z,21.27
2019-04-10T12:14:15.905Z,22.00
2019-04-10T12:16:43.217Z,22.60
2019-04-10T12:19:11.045Z,22.33
2019-04-10T12:21:38.582Z,21.67
2019-04-10T12:24:07.337Z,22.17
2019-04-10T12:26:35.986Z,22.70
2019-04-10T12:29:04.462Z,22.80
2019-04-10T12:31:33.207Z,22.77
2019-04-10T12:34:03.026Z,22.50
2019-04-10T12:36:31.021Z,23.90
2019-04-10T12:38:58.611Z,22.83
2019-04-10T12:41:25.837Z,24.37
2019-04-10T12:43:53.500Z,23.90
2019-04-10T12:46:21.117Z,23.47
2019-04-10T12:48:49.214Z,22.73
2019-04-10T12:51:17.410Z,24.00
2019-04-10T12:53:45.588Z,22.07
2019-04-10T12:56:13.747Z,22.10
2019-04-10T12:58:41.121Z,22.83
2019-04-10T13:01:08.775Z,23.97
2019-04-10T13:03:36.409Z,25.67
2019-04-10T13:06:05.275Z,24.50
2019-04-10T13:08:51.101Z,24.30
2019-04-10T13:11:02.519Z,24.93
2019-04-10T13:13:30.307Z,24.73
2019-04-10T13:15:57.683Z,22.90
2019-04-10T13:18:24.899Z,24.57
2019-04-10T13:20:53.492Z,24.60
2019-04-10T13:23:21.100Z,24.97
2019-04-10T13:25:55.549Z,24.97
2019-04-10T13:28:17.576Z,24.40
2019-04-10T13:30:51.544Z,24.27
2019-04-10T13:33:14.191Z,25.03
2019-04-10T13:35:42.097Z,24.67
2019-04-10T13:38:09.401Z,24.43
2019-04-10T13:40:37.499Z,24.43
2019-04-10T13:43:05.382Z,24.07
2019-04-10T13:45:33.304Z,23.00
2019-04-10T13:48:00.890Z,24.27
2019-04-10T13:50:28.219Z,25.93
2019-04-10T13:52:55.431Z,23.37
2019-04-10T13:55:24.195Z,24.00
2019-04-10T13:57:52.913Z,24.53
2019-04-10T14:00:39.681Z,24.83
2019-04-10T14:03:06.502Z,23.97
2019-04-10T14:05:34.754Z,24.43
2019-04-10T14:08:02.223Z,24.53
2019-04-10T14:10:29.570Z,25.07
2019-04-10T14:12:57.994Z,24.57
2019-04-10T14:15:27.176Z,25.03
2019-04-10T14:17:54.524Z,24.77
2019-04-10T14:20:22.180Z,24.93
2019-04-10T14:22:55.703Z,26.97
2019-04-10T14:25:31.661Z,24.97
2019-04-10T14:28:00.402Z,24.10
2019-04-10T14:30:38.367Z,24.67
2019-04-10T14:33:07.174Z,25.47
2019-04-10T14:35:35.605Z,25.00
2019-04-10T14:38:04.033Z,24.83
2019-04-10T14:40:32.514Z,25.40
2019-04-10T14:43:00.107Z,23.73
2019-04-10T14:45:27.734Z,26.10
2019-04-10T14:47:56.716Z,26.13
2019-04-10T14:50:24.777Z,25.03
2019-04-10T14:52:52.412Z,25.47
2019-04-10T14:55:21.685Z,24.53
2019-04-10T14:57:50.833Z,25.10
2019-04-10T15:00:39.066Z,24.20
2019-04-10T15:03:06.802Z,25.03
2019-04-10T15:05:44.901Z,24.10
2019-04-10T15:08:03.646Z,24.30
2019-04-10T15:10:31.928Z,24.70
2019-04-10T15:13:09.078Z,24.27
2019-04-10T15:15:28.628Z,23.87
2019-04-10T15:17:56.090Z,24.10
2019-04-10T15:20:23.552Z,23.30
2019-04-10T15:22:51.051Z,24.70
2019-04-10T15:25:19.453Z,24.37
2019-04-10T15:27:46.852Z,24.47
2019-04-10T15:30:14.654Z,23.23
2019-04-10T15:32:42.146Z,25.67
2019-04-10T15:35:10.445Z,25.80
2019-04-10T15:37:38.156Z,25.63
2019-04-10T15:40:18.132Z,23.13
2019-04-10T15:42:37.242Z,26.03
2019-04-10T15:45:05.337Z,26.17
2019-04-10T15:47:33.411Z,25.83
2019-04-10T15:50:02.070Z,26.33
2019-04-10T15:52:29.556Z,27.20
2019-04-10T15:54:57.403Z,28.03
2019-04-10T15:57:25.509Z,27.60
2019-04-10T15:59:53.143Z,28.60
2019-04-10T16:02:21.619Z,25.97
2019-04-10T16:04:49.103Z,26.40
2019-04-10T16:07:18.079Z,25.47
2019-04-10T16:09:50.646Z,25.67
2019-04-10T16:12:17.013Z,27.73
2019-04-10T16:14:44.490Z,25.43
2019-04-10T16:17:31.611Z,26.53
2019-04-10T16:20:22.668Z,26.43
2019-04-10T16:23:08.370Z,26.90
2019-04-10T16:25:36.236Z,28.20
2019-04-10T16:28:04.349Z,26.57
2019-04-10T16:30:32.847Z,26.97
2019-04-10T16:33:00.813Z,27.60
2019-04-10T16:35:29.483Z,26.53
2019-04-10T16:37:58.142Z,25.63
2019-04-10T16:40:25.539Z,27.00
2019-04-10T16:42:53.019Z,25.97
2019-04-10T16:45:20.428Z,26.53
2019-04-10T16:47:47.960Z,26.73
2019-04-10T16:50:15.602Z,27.80
2019-04-10T16:52:42.837Z,27.23
2019-04-10T16:55:11.546Z,27.07
2019-04-10T16:57:39.203Z,25.97
2019-04-10T17:00:07.119Z,26.93
2019-04-10T17:02:35.925Z,28.70
2019-04-10T17:05:04.386Z,26.97
2019-04-10T17:07:32.787Z,27.47
2019-04-10T17:10:12.886Z,27.40
2019-04-10T17:12:29.612Z,28.00
2019-04-10T17:14:57.556Z,27.13
2019-04-10T17:17:25.040Z,26.37
2019-04-10T17:19:55.925Z,29.20
2019-04-10T17:22:30.869Z,27.50
2019-04-10T17:24:50.673Z,28.53
2019-04-10T17:27:19.375Z,34.83
2019-04-10T17:29:47.330Z,42.03
2019-04-10T17:32:15.202Z,39.43
2019-04-10T17:34:43.138Z,38.27
2019-04-10T17:37:11.628Z,83.17
2019-04-10T17:39:39.737Z,134.07
2019-04-10T17:42:08.104Z,154.80
2019-04-10T17:44:36.012Z,107.33
2019-04-10T17:47:05.548Z,140.33
2019-04-10T17:49:33.909Z,63.70
2019-04-10T17:52:03.613Z,53.67
2019-04-10T17:54:31.399Z,31.13
2019-04-10T17:57:00.322Z,33.73
2019-04-10T17:59:28.159Z,31.00
2019-04-10T18:01:57.219Z,30.23
2019-04-10T18:04:24.545Z,27.13
2019-04-10T18:06:52.050Z,28.30
2019-04-10T18:09:21.367Z,26.90
2019-04-10T18:11:49.718Z,29.10
2019-04-10T18:14:17.492Z,29.67
2019-04-10T18:16:46.299Z,30.53
2019-04-10T18:19:15.325Z,37.37
2019-04-10T18:21:44.266Z,31.53
2019-04-10T18:24:11.820Z,22.57
2019-04-10T18:26:39.525Z,19.37
2019-04-10T18:29:07.866Z,15.90
2019-04-10T18:31:35.213Z,15.00
2019-04-10T18:34:02.911Z,16.40
2019-04-10T18:36:31.938Z,15.03
2019-04-10T18:38:59.705Z,15.53
2019-04-10T18:41:27.653Z,14.47
2019-04-10T18:43:56.286Z,15.23
2019-04-10T18:46:24.038Z,15.20
2019-04-10T18:48:51.427Z,16.30
2019-04-10T18:51:18.764Z,14.37
2019-04-10T18:53:46.312Z,15.10
2019-04-10T18:56:13.567Z,15.33
2019-04-10T18:58:45.963Z,14.73
2019-04-10T19:01:37.045Z,15.23
2019-04-10T19:04:14.185Z,17.83
2019-04-10T19:06:49.825Z,17.00
2019-04-10T19:09:24.557Z,14.70
2019-04-10T19:11:48.323Z,15.27
2019-04-10T19:14:16.284Z,16.90
2019-04-10T19:16:45.793Z,15.87
2019-04-10T19:19:14.260Z,15.57
2019-04-10T19:21:42.187Z,15.13
2019-04-10T19:24:09.787Z,15.13
2019-04-10T19:26:37.777Z,15.50
2019-04-10T19:29:05.409Z,15.83
2019-04-10T19:31:35.738Z,17.47
2019-04-10T19:34:03.219Z,45.80
2019-04-10T19:36:32.841Z,19.03
2019-04-10T19:39:00.160Z,17.53
2019-04-10T19:41:32.782Z,19.93
2019-04-10T19:43:57.097Z,32.03
2019-04-10T19:46:25.769Z,19.93
2019-04-10T19:48:53.592Z,16.13
2019-04-10T19:51:21.834Z,20.00
2019-04-10T19:53:49.489Z,16.63
2019-04-10T19:56:18.098Z,15.70
2019-04-10T19:58:47.512Z,16.43
2019-04-10T20:01:15.436Z,15.80
2019-04-10T20:03:43.765Z,16.77
2019-04-10T20:06:12.083Z,14.83
2019-04-10T20:08:39.888Z,15.27
2019-04-10T20:11:08.723Z,15.00
2019-04-10T20:13:36.284Z,20.77
2019-04-10T20:16:03.857Z,18.13
2019-04-10T20:18:31.125Z,19.07
2019-04-10T20:20:59.661Z,17.83
2019-04-10T20:23:27.902Z,16.63
2019-04-10T20:25:55.299Z,16.23
2019-04-10T20:28:22.847Z,16.57
2019-04-10T20:30:53.166Z,15.67
2019-04-10T20:33:38.925Z,18.47
2019-04-10T20:36:06.809Z,14.53
2019-04-10T20:38:34.818Z,15.03
2019-04-10T20:41:02.478Z,17.77
2019-04-10T20:43:31.057Z,16.07
2019-04-10T20:46:00.028Z,16.67
2019-04-10T20:48:28.659Z,16.03
2019-04-10T20:50:57.218Z,15.37
2019-04-10T20:53:26.167Z,15.90
2019-04-10T20:55:54.296Z,15.10
2019-04-10T20:58:22.031Z,15.33
2019-04-10T21:00:49.815Z,15.30
2019-04-10T21:03:17.593Z,16.10
2019-04-10T21:05:45.020Z,15.03
2019-04-10T21:08:13.752Z,15.40
2019-04-10T21:10:41.237Z,15.57
2019-04-10T21:13:08.666Z,15.33
2019-04-10T21:15:36.018Z,14.83
2019-04-10T21:18:04.622Z,14.10
2019-04-10T21:20:32.643Z,14.33
2019-04-10T21:23:01.276Z,14.80
2019-04-10T21:25:28.752Z,15.17
2019-04-10T21:27:57.714Z,14.53
2019-04-10T21:30:40.535Z,14.20
2019-04-10T21:33:28.485Z,14.33
2019-04-10T21:35:56.095Z,13.80
2019-04-10T21:38:23.622Z,13.20
2019-04-10T21:40:51.763Z,21.00
2019-04-10T21:43:20.272Z,17.80
2019-04-10T21:45:49.687Z,14.07
2019-04-10T21:48:17.108Z,14.50
2019-04-10T21:50:44.433Z,32.47
2019-04-10T21:53:12.245Z,68.07
2019-04-10T21:55:40.097Z,24.00
2019-04-10T21:58:08.159Z,25.60
2019-04-10T22:00:54.025Z,20.80
2019-04-10T22:03:22.179Z,18.73
2019-04-10T22:05:57.288Z,22.47
2019-04-10T22:08:34.608Z,12.43
2019-04-10T22:11:01.914Z,14.33
2019-04-10T22:13:30.169Z,16.57
2019-04-10T22:15:59.678Z,17.37
2019-04-10T22:18:27.547Z,12.73
2019-04-10T22:20:54.868Z,12.63
2019-04-10T22:23:22.479Z,15.20
2019-04-10T22:25:50.459Z,14.20
2019-04-10T22:28:18.961Z,22.77
2019-04-10T22:30:48.481Z,18.17
2019-04-10T22:33:16.034Z,18.03
2019-04-10T22:35:44.288Z,12.60
2019-04-10T22:38:12.944Z,15.33
2019-04-10T22:40:40.469Z,12.37
2019-04-10T22:43:07.793Z,13.40
2019-04-10T22:45:38.129Z,11.57
2019-04-10T22:48:06.259Z,14.07
2019-04-10T22:50:34.477Z,12.00
2019-04-10T22:53:02.088Z,12.67
2019-04-10T22:55:29.322Z,11.67
2019-04-10T22:57:56.929Z,16.30
2019-04-10T23:00:30.291Z,13.93
2019-04-10T23:02:58.316Z,14.30
2019-04-10T23:05:26.749Z,13.93
2019-04-10T23:07:55.472Z,11.87
2019-04-10T23:10:23.001Z,11.97
2019-04-10T23:12:59.126Z,11.90
2019-04-10T23:15:20.143Z,12.23
2019-04-10T23:17:48.662Z,11.30
2019-04-10T23:20:16.502Z,12.07
2019-04-10T23:22:43.924Z,13.53
2019-04-10T23:25:11.973Z,16.70
2019-04-10T23:27:39.199Z,13.30
2019-04-10T23:30:10.860Z,13.47
2019-04-10T23:32:39.502Z,13.43
2019-04-10T23:35:07.335Z,11.47
2019-04-10T23:37:35.048Z,12.10
2019-04-10T23:40:04.929Z,12.53
2019-04-10T23:42:32.425Z,12.10
2019-04-10T23:45:01.594Z,14.20
2019-04-10T23:47:29.168Z,12.17
2019-04-10T23:49:57.551Z,11.57
2019-04-10T23:52:25.509Z,12.47
2019-04-10T23:54:53.307Z,11.63
2019-04-10T23:57:21.189Z,13.10
2019-04-10T23:59:48.960Z,12.33
